Terminal Aerodrome Forecast
Issued by NWS

Home | Current Version | Previous Version | Graphics & Text | Print | Product List | Glossary On
Versions: 1 2 3 4 5 6 7 8 9 10 11 12 13 14 15 16 17 18 19 20 21 22 23 24 25 26 27 28 29 30
000
FTUS43 KLOT 192039 AAA
TAFDPA
TAF AMD
KDPA 192039Z 1921/2018 VRB03KT P6SM SCT250
     FM200300 12005KT P6SM SCT250
     FM200900 13004KT 3SM BR SCT003 BKN250
      TEMPO 2010/2014 1/2SM FG BKN003
     FM201600 16012KT P6SM SCT007 BKN035 OVC250=

USA.gov is the U.S. government's official web portal to all federal, state and local government web resources and services.